Time;durP1;ratioP1;P1;durP2;ratioP2;P2;SDS_P1;SDS_P2;PMS_P1;PMS_P2;Temp;Humidity;BMP_temperature;BMP_pressure;BME280_temperature;BME280_humidity;BME280_pressure;Samples;Min_cycle;Max_cycle;Signal;HPM_P1;HPM_P2
2022/06/10 00:00:58;;;;;;;5.03;2.42;;;;;;;15.83;93.00;100673.63;5031948;28;20060;-64
2022/06/10 00:03:25;;;;;;;5.00;2.28;;;;;;;15.77;93.57;100681.94;5031741;28;20040;-63
2022/06/10 00:05:54;;;;;;;4.55;1.92;;;;;;;15.71;94.30;100684.03;5031957;28;20057;-63
2022/06/10 00:08:23;;;;;;;4.53;1.67;;;;;;;15.60;95.47;100684.47;5031776;28;20031;-63
2022/06/10 00:10:49;;;;;;;3.90;2.03;;;;;;;15.43;95.20;100672.72;5032019;28;20469;-63
2022/06/10 00:13:16;;;;;;;4.72;2.08;;;;;;;15.47;95.73;100693.97;5031600;28;20527;-63
2022/06/10 00:15:42;;;;;;;8.40;2.50;;;;;;;15.32;96.78;100688.34;5031645;28;20025;-63
2022/06/10 00:18:08;;;;;;;6.25;2.40;;;;;;;15.30;97.12;100690.22;5063567;28;20085;-63
2022/06/10 00:20:34;;;;;;;4.68;2.33;;;;;;;15.30;96.94;100690.22;5058099;28;20048;-63
2022/06/10 00:23:00;;;;;;;6.60;2.40;;;;;;;15.26;97.63;100693.94;5046435;28;20071;-63
2022/06/10 00:25:26;;;;;;;5.28;2.00;;;;;;;15.23;98.02;100700.31;5049973;28;20028;-64
2022/06/10 00:27:52;;;;;;;6.03;2.10;;;;;;;15.24;98.20;100685.97;5048049;28;20195;-64
2022/06/10 00:30:20;;;;;;;5.30;2.20;;;;;;;15.29;98.51;100694.69;5044366;28;20477;-64
2022/06/10 00:32:45;;;;;;;5.70;2.47;;;;;;;15.32;97.46;100699.06;5027726;28;20087;-64
2022/06/10 00:35:12;;;;;;;5.93;2.67;;;;;;;15.31;97.38;100695.50;5029274;28;20021;-64
2022/06/10 00:37:37;;;;;;;5.68;2.42;;;;;;;15.25;97.78;100687.72;5028416;28;20029;-64
2022/06/10 00:40:04;;;;;;;6.72;2.47;;;;;;;15.22;97.63;100692.34;5030535;28;20026;-64
2022/06/10 00:42:30;;;;;;;4.80;2.40;;;;;;;15.22;97.59;100695.88;5031124;28;20536;-64
2022/06/10 00:44:55;;;;;;;5.38;2.70;;;;;;;15.26;98.23;100697.50;5031212;28;20037;-64
2022/06/10 00:47:30;;;;;;;8.40;2.75;;;;;;;15.26;97.96;100694.81;5050674;28;20028;-64
2022/06/10 00:50:22;;;;;;;4.43;2.50;;;;;;;15.22;98.16;100695.88;5051196;28;20025;-64
2022/06/10 00:52:53;;;;;;;4.80;2.45;;;;;;;15.14;98.50;100683.75;5050804;28;20058;-64
2022/06/10 00:55:28;;;;;;;4.95;2.97;;;;;;;15.16;98.15;100688.09;5050778;28;20025;-64
2022/06/10 00:58:00;;;;;;;9.80;2.80;;;;;;;15.12;98.82;100690.97;5051266;28;20471;-64
2022/06/10 01:00:27;;;;;;;4.55;2.83;;;;;;;15.10;98.93;100683.00;5051346;28;20033;-64
2022/06/10 01:02:52;;;;;;;7.63;2.97;;;;;;;15.10;98.87;100682.09;5050808;28;20400;-64
2022/06/10 01:05:23;;;;;;;4.95;2.78;;;;;;;15.13;98.50;100687.34;5050541;28;20052;-64
2022/06/10 01:07:55;;;;;;;7.25;3.22;;;;;;;15.14;98.33;100689.94;5034562;28;20026;-64
2022/06/10 01:10:21;;;;;;;4.43;2.30;;;;;;;15.13;98.13;100682.84;5048984;28;20512;-64
2022/06/10 01:13:07;;;;;;;6.47;2.97;;;;;;;15.17;97.65;100681.78;5050757;28;20135;-64
2022/06/10 01:15:40;;;;;;;8.70;4.03;;;;;;;15.20;97.87;100691.53;5050891;28;20033;-64
2022/06/10 01:18:39;;;;;;;6.47;3.17;;;;;;;15.16;97.86;100690.78;5050299;28;20033;-64
2022/06/10 01:21:14;;;;;;;8.20;2.92;;;;;;;15.09;98.30;100691.94;5050605;28;20047;-64
2022/06/10 01:23:46;;;;;;;11.50;3.10;;;;;;;15.07;98.45;100699.19;5050725;28;20033;-64
2022/06/10 01:27:47;;;;;;;4.72;2.90;;;;;;;15.06;98.67;100689.38;5050864;28;20460;-64
2022/06/10 01:29:20;;;;;;;4.13;2.78;;;;;;;14.98;98.03;100699.53;5050486;28;20481;-64
2022/06/10 01:31:56;;;;;;;7.03;2.83;;;;;;;14.92;98.93;100699.78;5050660;28;20029;-63
2022/06/10 01:34:49;;;;;;;8.60;3.10;;;;;;;14.84;98.44;100698.34;5036323;28;20025;-64
2022/06/10 01:37:43;;;;;;;6.10;2.75;;;;;;;14.86;98.45;100699.16;5030656;28;20446;-63
2022/06/10 01:40:22;;;;;;;6.35;2.83;;;;;;;14.80;98.73;100708.31;5030405;28;20508;-63
2022/06/10 01:42:57;;;;;;;4.78;2.80;;;;;;;14.73;98.83;100704.09;5031140;28;20083;-64
2022/06/10 01:45:33;;;;;;;8.25;2.88;;;;;;;14.75;99.33;100696.88;5034983;28;20025;-64
2022/06/10 01:48:10;;;;;;;6.10;2.70;;;;;;;14.72;99.56;100702.38;5034544;28;20048;-63
2022/06/10 01:50:46;;;;;;;5.35;2.53;;;;;;;14.72;99.93;100702.38;5032916;28;20536;-64
2022/06/10 01:53:22;;;;;;;5.50;2.88;;;;;;;14.64;100.00;100688.41;5032536;28;20052;-63
2022/06/10 01:55:48;;;;;;;9.15;3.10;;;;;;;14.65;100.00;100700.84;5032436;28;20578;-63
2022/06/10 01:58:20;;;;;;;6.75;2.70;;;;;;;14.63;100.00;100701.84;5032290;28;20064;-64
2022/06/10 02:00:48;;;;;;;7.20;2.30;;;;;;;14.55;100.00;100693.25;5032403;28;20037;-64
2022/06/10 02:03:24;;;;;;;3.83;2.40;;;;;;;14.55;100.00;100694.09;5032374;28;20030;-64
2022/06/10 02:06:06;;;;;;;6.43;2.85;;;;;;;14.46;100.00;100686.44;5033813;28;20042;-63
2022/06/10 02:08:38;;;;;;;7.30;3.30;;;;;;;14.54;100.00;100695.03;5034225;28;20116;-64
2022/06/10 02:11:04;;;;;;;7.47;2.67;;;;;;;14.55;100.00;100694.09;5034284;28;20380;-64
2022/06/10 02:13:54;;;;;;;6.75;3.03;;;;;;;14.53;100.00;100696.84;5034008;28;20021;-65
2022/06/10 02:16:26;;;;;;;4.72;2.50;;;;;;;14.50;100.00;100696.97;5044448;28;20132;-64
2022/06/10 02:19:18;;;;;;;5.00;2.63;;;;;;;14.44;100.00;100701.66;5073737;28;20032;-64
2022/06/10 02:21:52;;;;;;;4.45;2.72;;;;;;;14.43;100.00;100703.47;5042286;28;20080;-64
2022/06/10 02:24:21;;;;;;;;;;;;;;;14.42;100.00;100703.53;5036780;28;20035;-64
2022/06/10 02:26:48;;;;;;;6.55;3.28;;;;;;;14.39;100.00;100703.66;5033621;28;19909;-64
2022/06/10 02:29:27;;;;;;;4.85;3.00;;;;;;;14.38;100.00;100713.47;5033883;28;20043;-64
2022/06/10 02:31:56;;;;;;;5.97;2.95;;;;;;;14.38;100.00;100717.97;5034006;28;20072;-64
2022/06/10 02:34:22;;;;;;;5.03;2.25;;;;;;;14.40;100.00;100719.63;5044732;28;20029;-64
2022/06/10 02:37:19;;;;;;;6.57;2.85;;;;;;;14.39;100.00;100719.69;5044974;28;20044;-64
2022/06/10 02:40:18;;;;;;;5.22;2.58;;;;;;;14.42;100.00;100719.59;5033339;28;20037;-64
2022/06/10 02:42:58;;;;;;;5.43;2.78;;;;;;;14.32;100.00;100719.06;5033646;28;20025;-64
2022/06/10 02:45:30;;;;;;;6.10;2.90;;;;;;;14.29;100.00;100723.63;5033418;28;20032;-64
2022/06/10 02:48:21;;;;;;;6.32;3.00;;;;;;;14.27;100.00;100725.50;5033218;28;20112;-64
2022/06/10 02:50:46;;;;;;;5.82;2.90;;;;;;;14.27;100.00;100725.50;5033552;28;20465;-64
2022/06/10 02:53:12;;;;;;;6.07;3.17;;;;;;;14.29;100.00;100731.66;5033555;28;20033;-64
2022/06/10 02:55:40;;;;;;;7.65;3.65;;;;;;;14.24;100.00;100730.94;5052390;28;20055;-64
2022/06/10 03:01:13;;;;;;;5.72;3.30;;;;;;;14.21;100.00;100747.97;5051904;28;20085;-63
2022/06/10 03:04:05;;;;;;;5.40;3.47;;;;;;;14.20;100.00;100745.38;5051704;28;20024;-64
2022/06/10 03:06:42;;;;;;;3.88;2.65;;;;;;;14.08;100.00;100745.78;5044184;28;20045;-64
2022/06/10 03:09:33;;;;;;;5.70;3.35;;;;;;;13.98;100.00;100739.00;5039471;28;20032;-63
2022/06/10 03:12:08;;;;;;;8.40;3.50;;;;;;;13.97;100.00;100747.97;5050390;28;20107;-64
2022/06/10 03:14:43;;;;;;;7.43;3.40;;;;;;;13.97;100.00;100747.97;5052738;28;20443;-63
2022/06/10 03:17:30;;;;;;;6.32;3.28;;;;;;;13.94;100.00;100753.41;5060200;28;20021;-65
2022/06/10 03:20:06;;;;;;;4.00;2.47;;;;;;;13.88;100.00;100750.94;5070886;28;20097;-63
2022/06/10 03:22:50;;;;;;;6.60;3.05;;;;;;;13.87;100.00;100759.91;5070882;28;20024;-62
2022/06/10 03:25:32;;;;;;;8.10;3.22;;;;;;;13.85;100.00;100759.97;5069996;28;20101;-62
2022/06/10 03:28:17;;;;;;;6.15;3.08;;;;;;;13.83;100.00;100760.94;5052001;28;20072;-62
2022/06/10 03:30:58;;;;;;;6.22;2.67;;;;;;;13.83;100.00;100763.59;5029471;28;20057;-62
2022/06/10 03:33:37;;;;;;;6.63;3.28;;;;;;;13.78;100.00;100762.88;5030414;28;20113;-62
2022/06/10 03:36:16;;;;;;;6.25;3.22;;;;;;;13.79;100.00;100764.66;5031562;28;20062;-62
2022/06/10 03:38:45;;;;;;;6.63;3.03;;;;;;;13.80;100.00;100764.59;5032690;28;20022;-62
2022/06/10 03:41:26;;;;;;;12.00;3.22;;;;;;;13.79;100.00;100770.00;5032338;28;20028;-63
2022/06/10 03:43:54;;;;;;;5.90;2.83;;;;;;;13.81;100.00;100768.13;5032395;28;20125;-63
2022/06/10 03:46:23;;;;;;;6.30;2.50;;;;;;;13.88;100.00;100769.66;5032306;28;20029;-63
2022/06/10 03:48:50;;;;;;;8.45;3.35;;;;;;;13.88;100.00;100780.38;5032373;28;20492;-62
2022/06/10 03:51:17;;;;;;;4.00;2.88;;;;;;;13.87;100.00;100773.28;5032285;28;20542;-64
2022/06/10 03:53:44;;;;;;;7.85;2.83;;;;;;;13.89;100.00;100776.75;5032422;28;20052;-64
2022/06/10 03:56:11;;;;;;;6.35;2.92;;;;;;;13.91;100.00;100780.25;5032044;28;20535;-64
2022/06/10 03:58:37;;;;;;;8.80;2.70;;;;;;;13.91;100.00;100775.78;5031921;28;20057;-64
2022/06/10 04:01:03;;;;;;;5.18;2.50;;;;;;;13.95;100.00;100782.75;5031990;28;20063;-64
2022/06/10 04:03:28;;;;;;;7.85;2.78;;;;;;;14.01;100.00;100784.38;5031988;28;20057;-64
2022/06/10 04:05:54;;;;;;;5.57;2.65;;;;;;;14.06;100.00;100785.97;5031304;28;20049;-64
2022/06/10 04:08:19;;;;;;;5.38;2.85;;;;;;;14.07;100.00;100789.50;5031304;28;20027;-64
2022/06/10 04:10:45;;;;;;;6.40;2.72;;;;;;;14.09;100.00;100790.31;5031932;28;20160;-64
2022/06/10 04:13:10;;;;;;;6.80;3.20;;;;;;;14.14;100.00;100799.06;5031643;28;20044;-64
2022/06/10 04:15:36;;;;;;;8.35;3.05;;;;;;;14.17;100.00;100794.50;5044556;28;20083;-64
2022/06/10 04:18:04;;;;;;;6.63;3.42;;;;;;;14.21;100.00;100801.50;5079814;28;20024;-64
2022/06/10 04:20:34;;;;;;;7.53;3.08;;;;;;;14.17;100.00;100794.50;5071553;28;20020;-63
2022/06/10 04:23:00;;;;;;;7.70;3.03;;;;;;;14.26;100.00;100801.38;5071690;28;20028;-63
2022/06/10 04:25:25;;;;;;;7.45;2.90;;;;;;;14.28;100.00;100807.53;5071444;28;20111;-63
2022/06/10 04:27:51;;;;;;;6.13;2.42;;;;;;;14.30;100.00;100802.97;5053598;28;20024;-63
2022/06/10 04:30:29;;;;;;;5.75;2.67;;;;;;;14.35;100.00;100809.06;5048667;28;20079;-64
2022/06/10 04:32:55;;;;;;;5.68;2.60;;;;;;;14.39;100.00;100810.72;5051409;28;20086;-63
2022/06/10 04:35:21;;;;;;;4.78;2.75;;;;;;;14.44;100.00;100814.09;5051151;28;20036;-64
2022/06/10 04:37:48;;;;;;;5.78;2.80;;;;;;;14.46;99.58;100813.09;5034548;28;20152;-63
2022/06/10 04:40:16;;;;;;;9.73;3.08;;;;;;;14.53;100.00;100809.28;5031596;28;20417;-63
2022/06/10 04:42:43;;;;;;;6.30;2.80;;;;;;;14.93;100.00;100819.41;5031641;28;20473;-63
2022/06/10 04:45:10;;;;;;;7.32;3.67;;;;;;;15.36;98.13;100822.19;5031150;28;20102;-62
2022/06/10 04:47:35;;;;;;;4.68;3.05;;;;;;;15.39;94.64;100824.78;5031262;28;20481;-62
2022/06/10 04:50:01;;;;;;;8.27;2.90;;;;;;;15.27;93.51;100819.84;5031316;28;20029;-62
2022/06/10 04:52:27;;;;;;;6.18;2.50;;;;;;;15.17;93.82;100829.19;5034540;28;20064;-62
2022/06/10 04:54:54;;;;;;;6.28;2.70;;;;;;;15.10;94.54;100822.31;5050768;28;20033;-62
2022/06/10 04:57:20;;;;;;;5.63;2.72;;;;;;;15.08;95.34;100821.50;5050989;28;20435;-63
2022/06/10 04:59:46;;;;;;;5.07;2.45;;;;;;;15.03;95.40;100826.16;5050975;28;20017;-63
2022/06/10 05:02:12;;;;;;;5.05;3.38;;;;;;;15.04;96.40;100827.91;5050580;28;20098;-63
2022/06/10 05:04:37;;;;;;;9.40;3.40;;;;;;;15.07;96.20;100833.16;5050905;28;20534;-64
2022/06/10 05:07:03;;;;;;;8.75;2.97;;;;;;;15.11;95.48;100834.78;5039372;28;20056;-63
2022/06/10 05:09:28;;;;;;;5.70;2.47;;;;;;;15.17;95.36;100837.22;5030557;28;20029;-64
2022/06/10 05:11:54;;;;;;;6.28;2.92;;;;;;;15.28;95.80;100835.03;5030907;28;20108;-63
2022/06/10 05:14:19;;;;;;;5.57;2.70;;;;;;;15.35;95.56;100844.53;5029497;28;20029;-63
2022/06/10 05:16:45;;;;;;;4.72;2.70;;;;;;;15.41;94.74;100839.00;5040097;28;20376;-63
2022/06/10 05:19:10;;;;;;;8.50;2.85;;;;;;;15.47;94.57;100838.75;5070833;28;20024;-63
2022/06/10 05:21:36;;;;;;;6.65;2.55;;;;;;;15.55;94.09;100836.63;5070452;28;20038;-63
2022/06/10 05:24:01;;;;;;;5.90;3.00;;;;;;;15.67;93.94;100846.88;5070495;28;20024;-63
2022/06/10 05:26:29;;;;;;;4.82;2.90;;;;;;;15.76;93.15;100851.00;5070658;28;20025;-64
2022/06/10 05:28:55;;;;;;;3.00;2.35;;;;;;;15.90;92.66;100837.03;5049123;28;20499;-63
2022/06/10 05:31:21;;;;;;;6.57;2.53;;;;;;;15.95;91.30;100848.47;5030495;28;20084;-64
2022/06/10 05:36:30;;;;;;;7.47;2.47;;;;;;;16.21;90.30;100849.09;5030816;28;20108;-64
2022/06/10 05:38:56;;;;;;;7.25;2.75;;;;;;;16.24;88.82;100856.16;5030877;28;20021;-63
2022/06/10 05:44:06;;;;;;;6.13;2.50;;;;;;;16.43;88.99;100857.09;5030524;28;20447;-63
2022/06/10 05:46:31;;;;;;;11.40;3.00;;;;;;;16.51;88.09;100861.25;5031037;28;20122;-63
2022/06/10 05:48:57;;;;;;;4.93;2.45;;;;;;;16.59;87.04;100860.94;5048048;28;20427;-63
2022/06/10 05:51:23;;;;;;;5.53;2.35;;;;;;;16.88;86.34;100849.75;5041994;28;20024;-63
2022/06/10 05:53:48;;;;;;;8.18;2.65;;;;;;;16.99;84.83;100853.69;5050439;28;20060;-63
2022/06/10 05:56:14;;;;;;;7.28;3.42;;;;;;;17.10;84.09;100856.75;5048037;28;20025;-63
2022/06/10 05:58:39;;;;;;;7.07;2.75;;;;;;;17.25;84.03;100857.88;5041433;28;20018;-63
2022/06/10 06:01:05;;;;;;;5.88;3.10;;;;;;;17.39;83.64;100860.81;5030068;28;20396;-63
2022/06/10 06:03:30;;;;;;;5.93;2.80;;;;;;;17.54;82.70;100857.44;5043012;28;20032;-64
2022/06/10 06:05:56;;;;;;;4.50;2.63;;;;;;;17.67;81.54;100858.59;5048225;28;20056;-63
2022/06/10 06:08:21;;;;;;;6.35;3.03;;;;;;;17.83;81.75;100851.50;5030271;28;20034;-63
2022/06/10 06:10:47;;;;;;;6.85;2.45;;;;;;;17.87;79.62;100852.22;5030277;28;20215;-63
2022/06/10 06:13:12;;;;;;;5.22;2.30;;;;;;;17.89;78.93;100840.41;5030249;28;20037;-63
2022/06/10 06:15:39;;;;;;;4.75;2.47;;;;;;;17.96;79.28;100836.47;5039867;28;20407;-63
2022/06/10 06:18:05;;;;;;;5.35;2.13;;;;;;;18.13;77.43;100849.09;5048785;28;20025;-63
2022/06/10 06:20:30;;;;;;;9.48;2.30;;;;;;;18.15;76.64;100845.38;5042918;28;20033;-63
2022/06/10 06:22:55;;;;;;;4.93;2.10;;;;;;;18.24;76.25;100853.00;5048412;28;20093;-64
2022/06/10 06:25:21;;;;;;;6.13;2.28;;;;;;;18.35;75.61;100852.47;5048572;28;20044;-63
2022/06/10 06:27:48;;;;;;;3.63;2.08;;;;;;;18.49;75.42;100851.78;5046479;28;20087;-63
2022/06/10 06:30:30;;;;;;;4.75;2.65;;;;;;;18.58;74.82;100851.31;5048316;28;20121;-63
2022/06/10 06:32:56;;;;;;;7.85;2.38;;;;;;;18.78;75.60;100853.84;5051577;28;20056;-63
2022/06/10 06:35:23;;;;;;;3.60;2.10;;;;;;;18.93;74.28;100842.25;5051754;28;20679;-63
2022/06/10 06:37:48;;;;;;;4.30;2.10;;;;;;;19.20;73.93;100856.91;5036583;28;20029;-63
2022/06/10 06:40:15;;;;;;;7.45;2.08;;;;;;;19.27;71.09;100859.22;5035657;28;20029;-63
2022/06/10 06:42:41;;;;;;;5.30;3.10;;;;;;;19.47;69.71;100855.44;5033299;28;20036;-63
2022/06/10 06:45:07;;;;;;;4.97;1.80;;;;;;;19.67;70.32;100858.75;5044062;28;20033;-63
2022/06/10 06:47:32;;;;;;;3.42;2.20;;;;;;;19.79;70.22;100854.47;5052886;28;20581;-63
2022/06/10 06:49:59;;;;;;;5.82;2.00;;;;;;;19.92;69.09;100858.22;5044112;28;20029;-63
2022/06/10 06:52:24;;;;;;;5.15;2.42;;;;;;;20.11;69.13;100867.03;5032883;28;20063;-63
2022/06/10 06:54:50;;;;;;;6.30;2.13;;;;;;;20.27;65.98;100859.78;5032635;28;20057;-63
2022/06/10 06:57:17;;;;;;;5.75;2.03;;;;;;;20.55;66.39;100862.59;5033033;28;20030;-63
2022/06/10 06:59:42;;;;;;;5.47;1.95;;;;;;;20.76;66.34;100853.19;5050660;28;20041;-63
2022/06/10 07:02:08;;;;;;;4.38;1.98;;;;;;;20.94;65.78;100861.97;5052498;28;20028;-63
2022/06/10 07:04:34;;;;;;;4.88;1.63;;;;;;;21.21;65.74;100859.44;5047060;28;20032;-63
2022/06/10 07:06:59;;;;;;;7.05;1.85;;;;;;;21.36;66.35;100853.94;5039389;28;20409;-64
2022/06/10 07:09:25;;;;;;;5.10;1.80;;;;;;;21.43;63.97;100859.81;5031056;28;20025;-64
2022/06/10 07:11:51;;;;;;;6.38;1.90;;;;;;;21.51;62.89;100860.19;5031470;28;20031;-64
2022/06/10 07:14:16;;;;;;;5.65;1.90;;;;;;;21.55;62.92;100848.19;5031776;28;20370;-64
2022/06/10 07:16:42;;;;;;;2.60;1.60;;;;;;;21.93;62.15;100854.72;5052324;28;20048;-64
2022/06/10 07:19:08;;;;;;;3.10;1.42;;;;;;;21.98;58.91;100863.41;5072430;28;20056;-64
2022/06/10 07:21:33;;;;;;;4.68;2.00;;;;;;;22.20;59.43;100863.75;5048455;28;20025;-64
2022/06/10 07:23:59;;;;;;;3.75;1.77;;;;;;;22.20;58.81;100863.75;5049813;28;20044;-63
2022/06/10 07:26:24;;;;;;;3.58;1.70;;;;;;;22.35;60.85;100861.84;5051335;28;20024;-63
2022/06/10 07:28:51;;;;;;;8.82;1.63;;;;;;;22.46;56.27;100865.56;5050821;28;20032;-64
2022/06/10 07:31:17;;;;;;;3.92;1.65;;;;;;;22.79;57.41;100863.28;5036496;28;20061;-64
2022/06/10 07:33:43;;;;;;;4.10;1.60;;;;;;;22.97;55.05;100847.56;5030893;28;20116;-64
2022/06/10 07:36:10;;;;;;;4.30;1.63;;;;;;;23.50;53.25;100854.63;5030969;28;20036;-64
2022/06/10 07:38:36;;;;;;;7.45;1.55;;;;;;;23.98;53.81;100851.06;5030945;28;20087;-63
2022/06/10 07:43:46;;;;;;;3.78;1.50;;;;;;;24.36;53.09;100851.75;5032440;28;20450;-63
2022/06/10 07:46:15;;;;;;;7.00;1.30;;;;;;;24.49;49.96;100845.25;5048216;28;20033;-63
2022/06/10 07:48:42;;;;;;;5.05;1.52;;;;;;;24.57;50.53;100855.53;5042732;28;20028;-63
2022/06/10 07:51:07;;;;;;;3.90;1.10;;;;;;;24.81;51.96;100856.38;5033304;28;20080;-64
2022/06/10 07:53:32;;;;;;;6.03;3.25;;;;;;;24.73;52.01;100823.47;5048577;28;20041;-64
2022/06/10 07:56:00;;;;;;;4.35;1.65;;;;;;;25.05;49.56;100840.88;5052000;28;20033;-64
2022/06/10 07:58:28;;;;;;;8.57;1.58;;;;;;;25.17;49.35;100855.34;5038555;28;20033;-64
2022/06/10 08:00:54;;;;;;;4.57;1.50;;;;;;;25.37;48.47;100843.78;5036407;28;20140;-64
2022/06/10 08:03:20;;;;;;;3.47;1.05;;;;;;;25.31;46.52;100839.66;5049756;28;20111;-64
2022/06/10 08:05:46;;;;;;;4.35;2.25;;;;;;;25.38;48.15;100843.66;5048426;28;20408;-64
2022/06/10 08:08:18;;;;;;;2.10;1.00;;;;;;;25.77;45.79;100848.56;5049084;28;20033;-64
2022/06/10 08:10:44;;;;;;;4.43;1.30;;;;;;;26.02;45.17;100843.84;5049980;28;20025;-64
2022/06/10 08:13:10;;;;;;;5.90;1.27;;;;;;;26.28;44.89;100843.38;5048024;28;20029;-64
2022/06/10 08:15:36;;;;;;;1.63;1.00;;;;;;;25.74;46.81;100840.66;5032104;28;20033;-64
2022/06/10 08:18:03;;;;;;;3.63;1.40;;;;;;;26.02;47.21;100838.38;5061020;28;20465;-64
2022/06/10 08:23:16;;;;;;;2.67;1.20;;;;;;;25.83;46.22;100842.59;5047952;28;20036;-64
2022/06/10 08:25:42;;;;;;;5.75;1.25;;;;;;;25.85;46.23;100845.19;5046305;28;20041;-64
2022/06/10 08:28:09;;;;;;;4.80;1.23;;;;;;;25.82;46.89;100840.88;5049382;28;20377;-64
2022/06/10 08:30:35;;;;;;;5.88;1.55;;;;;;;26.22;46.06;100846.66;5049715;28;20033;-64
2022/06/10 08:33:03;;;;;;;3.88;1.30;;;;;;;26.57;46.03;100849.09;5049919;28;20033;-64
2022/06/10 08:35:30;;;;;;;5.65;1.52;;;;;;;26.62;45.32;100839.50;5044279;28;20520;-64
2022/06/10 08:37:56;;;;;;;5.57;1.63;;;;;;;26.75;44.92;100837.53;5048135;28;20021;-64
2022/06/10 08:40:46;;;;;;;8.32;1.52;;;;;;;27.03;43.54;100838.69;5050681;28;20447;-64
2022/06/10 08:43:35;;;;;;;5.53;1.30;;;;;;;27.38;43.06;100839.19;5051117;28;20029;-64
2022/06/10 08:46:28;;;;;;;3.92;1.10;;;;;;;27.28;43.89;100846.50;5050516;28;20470;-64
2022/06/10 08:49:24;;;;;;;3.28;1.35;;;;;;;27.19;44.49;100841.81;5049905;28;20024;-65
2022/06/10 08:52:05;;;;;;;4.45;1.65;;;;;;;27.35;44.91;100844.09;5049488;28;20489;-64
2022/06/10 08:54:39;;;;;;;5.35;1.02;;;;;;;27.73;42.57;100847.84;5049287;28;20028;-64
2022/06/10 08:57:35;;;;;;;5.38;1.55;;;;;;;27.73;41.61;100845.09;5049874;28;20032;-64
2022/06/10 09:00:02;;;;;;;3.33;1.60;;;;;;;27.56;40.82;100840.28;5049118;28;20033;-64
2022/06/10 09:02:34;;;;;;;1.95;0.88;;;;;;;27.23;42.82;100836.94;5050542;28;20484;-64
2022/06/10 09:05:08;;;;;;;2.90;1.15;;;;;;;27.47;42.00;100838.38;5050638;28;20478;-64
2022/06/10 09:07:48;;;;;;;4.70;1.02;;;;;;;27.00;42.35;100839.81;5035758;28;20029;-64
2022/06/10 09:10:33;;;;;;;2.47;0.70;;;;;;;26.90;41.82;100829.84;5030521;28;20044;-64
2022/06/10 09:13:25;;;;;;;1.65;0.80;;;;;;;27.28;40.46;100826.50;5030478;28;20033;-64
2022/06/10 09:15:56;;;;;;;3.83;1.15;;;;;;;27.52;42.99;100829.75;5029644;28;20045;-64
2022/06/10 09:18:32;;;;;;;3.22;0.80;;;;;;;27.87;39.77;100832.91;5065273;28;20029;-64
2022/06/10 09:21:11;;;;;;;5.18;1.83;;;;;;;28.29;40.69;100831.72;5068939;28;20030;-65
2022/06/10 09:23:41;;;;;;;4.50;0.90;;;;;;;28.19;38.00;100834.44;5068801;28;20398;-65
2022/06/10 09:26:19;;;;;;;2.05;0.52;;;;;;;28.12;39.32;100832.44;5069088;28;20021;-65
2022/06/10 09:28:45;;;;;;;2.55;0.82;;;;;;;28.36;37.95;100839.22;5064826;28;20044;-65
2022/06/10 09:31:35;;;;;;;4.15;0.82;;;;;;;28.41;38.01;100838.78;5031528;28;20021;-65
2022/06/10 09:34:26;;;;;;;2.30;0.68;;;;;;;28.17;39.23;100836.44;5031316;28;20036;-66
2022/06/10 09:37:00;;;;;;;4.53;0.93;;;;;;;28.25;39.20;100836.59;5040055;28;20039;-65
2022/06/10 09:42:49;;;;;;;3.53;1.10;;;;;;;28.74;38.42;100826.56;5050974;28;20503;-66
2022/06/10 09:45:28;;;;;;;3.42;0.90;;;;;;;28.10;37.81;100835.31;5050053;28;20025;-66
2022/06/10 09:48:07;;;;;;;4.43;1.40;;;;;;;28.46;38.14;100833.75;5048528;28;20102;-66
2022/06/10 09:50:41;;;;;;;2.67;1.27;;;;;;;28.58;37.56;100827.16;5048414;28;20501;-64
2022/06/10 09:53:07;;;;;;;3.10;1.17;;;;;;;28.38;36.13;100836.34;5048717;28;20032;-65
2022/06/10 09:56:00;;;;;;;2.47;0.75;;;;;;;28.65;36.04;100822.81;5048980;28;20385;-66
2022/06/10 09:58:46;;;;;;;3.00;0.70;;;;;;;29.16;36.75;100822.47;5048692;28;20013;-66
2022/06/10 10:01:50;;;;;;;3.47;0.82;;;;;;;29.49;38.16;100824.63;5049355;28;20037;-66
2022/06/10 10:04:36;;;;;;;6.97;0.77;;;;;;;29.43;36.18;100815.16;5047776;28;20037;-66
2022/06/10 10:07:15;;;;;;;3.90;1.00;;;;;;;29.03;35.35;100821.88;5053546;28;20056;-66
2022/06/10 10:09:49;;;;;;;3.70;1.02;;;;;;;29.29;36.02;100812.06;5054012;28;20309;-66
2022/06/10 10:12:29;;;;;;;1.35;0.60;;;;;;;29.35;36.33;100815.06;5054134;28;20033;-66
2022/06/10 10:15:17;;;;;;;3.63;1.15;;;;;;;29.25;35.04;100811.47;5052032;28;20104;-66
2022/06/10 10:18:08;;;;;;;2.33;0.70;;;;;;;29.67;36.02;100802.81;5059326;28;20024;-66
2022/06/10 10:20:56;;;;;;;5.78;1.40;;;;;;;30.08;35.88;100805.88;5073731;28;20040;-66
2022/06/10 10:23:30;;;;;;;3.60;0.70;;;;;;;30.22;32.81;100809.94;5034481;28;20022;-66
2022/06/10 10:25:55;;;;;;;2.55;0.70;;;;;;;29.94;31.50;100802.78;5042588;28;20036;-66
2022/06/10 10:28:31;;;;;;;4.30;1.30;;;;;;;29.73;33.89;100805.81;5051899;28;20024;-66
2022/06/10 10:31:17;;;;;;;3.90;0.90;;;;;;;29.75;32.00;100800.16;5051732;28;20029;-66
2022/06/10 10:33:44;;;;;;;3.70;0.98;;;;;;;29.95;33.95;100802.63;5051880;28;20059;-66
2022/06/10 10:36:28;;;;;;;3.50;0.80;;;;;;;29.83;34.06;100798.38;5048349;28;20021;-66
2022/06/10 10:38:55;;;;;;;5.25;0.70;;;;;;;29.88;32.80;100792.44;5033720;28;20029;-66
2022/06/10 10:41:36;;;;;;;3.70;0.60;;;;;;;30.14;32.87;100798.88;5036206;28;20045;-66
2022/06/10 10:44:07;;;;;;;4.32;0.70;;;;;;;30.50;33.91;100797.91;5033539;28;20100;-66
2022/06/10 10:46:35;;;;;;;2.67;0.68;;;;;;;31.13;33.50;100795.84;5047794;28;20033;-66
2022/06/10 10:49:21;;;;;;;3.42;0.68;;;;;;;30.94;31.36;100794.16;5053491;28;20021;-66
2022/06/10 10:51:49;;;;;;;2.38;0.82;;;;;;;30.72;29.90;100795.53;5053834;28;20021;-66
2022/06/10 10:54:33;;;;;;;2.88;0.95;;;;;;;30.88;31.64;100790.19;5053249;28;20029;-66
2022/06/10 10:57:01;;;;;;;1.88;0.60;;;;;;;30.98;30.36;100794.69;5053515;28;20522;-66
2022/06/10 10:59:39;;;;;;;3.92;0.70;;;;;;;31.32;31.42;100792.91;5052836;28;20423;-66
2022/06/10 11:02:30;;;;;;;2.53;0.60;;;;;;;30.65;29.78;100797.19;5053198;28;20029;-66
2022/06/10 11:05:35;;;;;;;5.82;0.85;;;;;;;30.76;30.04;100783.19;4985265;28;20369;-66
2022/06/10 11:08:15;;;;;;;2.05;0.73;;;;;;;31.20;29.73;100784.03;5033043;28;20044;-66
2022/06/10 11:10:51;;;;;;;3.25;0.70;;;;;;;31.38;32.00;100781.25;5033626;28;20075;-68
2022/06/10 11:13:25;;;;;;;3.25;0.90;;;;;;;31.79;30.51;100784.00;5032752;28;20033;-66
2022/06/10 11:15:51;;;;;;;1.52;0.70;;;;;;;31.63;26.29;100791.34;5031508;28;20468;-66
2022/06/10 11:18:16;;;;;;;3.40;0.52;;;;;;;31.28;28.46;100785.97;5066457;28;20028;-66
2022/06/10 11:20:42;;;;;;;2.17;0.60;;;;;;;31.53;28.13;100785.94;5071720;28;20040;-66
2022/06/10 11:23:22;;;;;;;2.08;0.73;;;;;;;31.39;29.58;100782.94;5071791;28;20084;-66
2022/06/10 11:26:11;;;;;;;2.13;0.57;;;;;;;31.54;29.09;100773.94;5071880;28;20024;-66
2022/06/10 11:28:40;;;;;;;1.98;0.55;;;;;;;31.85;29.27;100774.19;5071799;28;20036;-66
2022/06/10 11:31:27;;;;;;;3.15;0.60;;;;;;;31.32;29.43;100768.16;5072629;28;20131;-66
2022/06/10 11:33:55;;;;;;;4.22;0.82;;;;;;;31.40;30.07;100774.53;5054046;28;20040;-66
2022/06/10 11:36:27;;;;;;;1.67;0.60;;;;;;;31.89;30.02;100764.63;5037664;28;20484;-67
2022/06/10 11:39:19;;;;;;;5.25;0.65;;;;;;;31.92;31.61;100765.16;5052653;28;20029;-66
2022/06/10 11:42:07;;;;;;;1.42;0.68;;;;;;;32.30;31.28;100758.16;5052656;28;20359;-66
2022/06/10 11:44:40;;;;;;;5.38;1.65;;;;;;;32.16;30.84;100764.31;5052322;28;20079;-66
2022/06/10 11:47:19;;;;;;;1.98;0.73;;;;;;;32.37;28.47;100753.69;5052249;28;20017;-66
2022/06/10 11:49:58;;;;;;;2.92;0.80;;;;;;;32.64;31.66;100745.09;5052388;28;20029;-67
2022/06/10 11:52:33;;;;;;;2.13;0.80;;;;;;;33.06;30.65;100740.25;5052181;28;20414;-66
2022/06/10 11:55:15;;;;;;;2.90;0.75;;;;;;;33.55;29.08;100745.59;5052151;28;20112;-67
2022/06/10 12:00:56;;;;;;;3.35;1.38;;;;;;;32.90;31.54;100744.94;5052233;28;20035;-67
2022/06/10 12:03:30;;;;;;;3.17;0.90;;;;;;;33.23;30.56;100728.09;5048643;28;20036;-68
2022/06/10 12:06:14;;;;;;;7.03;0.90;;;;;;;33.21;30.45;100738.44;5043410;28;20050;-67
2022/06/10 12:08:52;;;;;;;3.35;0.68;;;;;;;33.41;29.98;100732.53;5032107;28;20378;-67